Time;durP1;ratioP1;P1;durP2;ratioP2;P2;SDS_P1;SDS_P2;PMS_P1;PMS_P2;Temp;Humidity;BMP_temperature;BMP_pressure;BME280_temperature;BME280_humidity;BME280_pressure;Samples;Min_cycle;Max_cycle;Signal;HPM_P1;HPM_P2
2022/01/04 00:00:31;;;;;;;11.02;8.13;;;;;;;;;;5021780;28;20280;-68
2022/01/04 00:02:57;;;;;;;15.95;8.85;;;;;;;;;;5009088;28;20045;-68
2022/01/04 00:05:24;;;;;;;13.25;8.13;;;;;;;;;;5025213;28;20049;-68
2022/01/04 00:07:50;;;;;;;15.13;8.13;;;;;;;;;;5019537;28;20142;-69
2022/01/04 00:10:21;;;;;;;14.95;9.23;;;;;;;;;;5024792;28;20222;-68
2022/01/04 00:15:33;;;;;;;14.18;7.68;;;;;;;;;;5016022;28;20514;-69
2022/01/04 00:18:00;;;;;;;12.68;7.72;;;;;;;;;;5006006;28;20477;-65
2022/01/04 00:20:26;;;;;;;11.68;7.78;;;;;;;;;;5027073;28;20056;-68
2022/01/04 00:22:52;;;;;;;13.02;7.90;;;;;;;;;;5017721;28;20049;-69
2022/01/04 00:25:18;;;;;;;14.55;7.38;;;;;;;;;;5015981;28;20462;-68
2022/01/04 00:27:45;;;;;;;12.88;7.40;;;;;;;;;;5019860;28;20146;-68
2022/01/04 00:30:11;;;;;;;13.27;7.95;;;;;;;;;;5011605;28;21248;-67
2022/01/04 00:32:38;;;;;;;12.23;7.82;;;;;;;;;;5019021;28;20057;-68
2022/01/04 00:35:04;;;;;;;15.70;8.68;;;;;;;;;;5025880;28;20058;-68
2022/01/04 00:37:31;;;;;;;15.23;8.40;;;;;;;;;;5011598;28;20426;-67
2022/01/04 00:39:58;;;;;;;15.38;8.63;;;;;;;;;;5032362;28;20446;-67
2022/01/04 00:42:24;;;;;;;15.45;9.00;;;;;;;;;;5013308;28;20400;-68
2022/01/04 00:44:50;;;;;;;12.35;7.78;;;;;;;;;;5038757;28;20426;-68
2022/01/04 00:47:19;;;;;;;16.98;8.85;;;;;;;;;;5017230;28;20977;-68
2022/01/04 00:49:46;;;;;;;16.52;8.93;;;;;;;;;;5025236;28;20417;-67
2022/01/04 00:52:16;;;;;;;13.07;8.30;;;;;;;;;;5024803;28;21076;-68
2022/01/04 00:54:45;;;;;;;15.43;9.30;;;;;;;;;;5015764;28;20050;-68
2022/01/04 00:57:11;;;;;;;;;;;;;;;;;;5017938;28;20045;-68
2022/01/04 00:59:37;;;;;;;12.80;8.25;;;;;;;;;;5018568;28;20305;-68
2022/01/04 01:02:04;;;;;;;15.88;8.48;;;;;;;;;;5025546;28;20053;-67
2022/01/04 01:04:30;;;;;;;12.57;8.63;;;;;;;;;;5018229;28;20044;-67
2022/01/04 01:06:57;;;;;;;12.82;8.38;;;;;;;;;;5022831;28;20053;-68
2022/01/04 01:09:27;;;;;;;12.57;9.35;;;;;;;;;;5019903;28;20744;-67
2022/01/04 01:11:54;;;;;;;15.98;8.63;;;;;;;;;;5014559;28;20498;-68
2022/01/04 01:14:20;;;;;;;15.70;8.18;;;;;;;;;;5022729;28;20051;-67
2022/01/04 01:16:47;;;;;;;12.48;8.18;;;;;;;;;;5019457;28;20061;-67
2022/01/04 01:19:13;;;;;;;11.85;8.50;;;;;;;;;;5022223;28;20049;-67
2022/01/04 01:21:39;;;;;;;13.48;8.88;;;;;;;;;;5014497;28;20057;-67
2022/01/04 01:24:06;;;;;;;14.32;8.75;;;;;;;;;;5017726;28;20057;-68
2022/01/04 01:26:32;;;;;;;15.57;8.10;;;;;;;;;;5024630;28;20805;-68
2022/01/04 01:28:58;;;;;;;16.92;9.13;;;;;;;;;;4994822;28;20123;-67
2022/01/04 01:31:25;;;;;;;17.35;10.30;;;;;;;;;;5030242;28;20049;-67
2022/01/04 01:33:51;;;;;;;14.32;8.65;;;;;;;;;;5012126;28;20374;-67
2022/01/04 01:36:17;;;;;;;13.02;8.25;;;;;;;;;;5022586;28;20056;-68
2022/01/04 01:38:45;;;;;;;15.68;8.32;;;;;;;;;;4992011;28;20060;-68
2022/01/04 01:41:11;;;;;;;12.60;8.80;;;;;;;;;;5025454;28;20455;-68
2022/01/04 01:43:37;;;;;;;19.17;9.25;;;;;;;;;;5022030;28;20448;-68
2022/01/04 01:46:03;;;;;;;15.88;8.77;;;;;;;;;;5017086;28;20068;-68
2022/01/04 01:48:30;;;;;;;14.63;9.05;;;;;;;;;;5023277;28;20603;-68
2022/01/04 01:50:56;;;;;;;19.60;9.93;;;;;;;;;;5006985;28;20054;-67
2022/01/04 01:53:22;;;;;;;14.15;9.25;;;;;;;;;;5026380;28;20056;-67
2022/01/04 01:55:49;;;;;;;13.43;8.65;;;;;;;;;;5012453;28;20045;-67
2022/01/04 01:58:15;;;;;;;17.98;10.55;;;;;;;;;;5033761;28;20053;-67
2022/01/04 02:00:42;;;;;;;18.20;9.98;;;;;;;;;;5020579;28;20076;-67
2022/01/04 02:03:08;;;;;;;14.93;10.48;;;;;;;;;;5013270;28;20061;-67
2022/01/04 02:05:35;;;;;;;14.45;9.82;;;;;;;;;;5019628;28;20461;-67
2022/01/04 02:08:03;;;;;;;17.98;11.05;;;;;;;;;;5015912;28;20049;-67
2022/01/04 02:10:29;;;;;;;18.23;10.43;;;;;;;;;;5023389;28;20056;-67
2022/01/04 02:12:56;;;;;;;17.95;10.23;;;;;;;;;;5014617;28;20057;-67
2022/01/04 02:15:23;;;;;;;18.42;10.63;;;;;;;;;;5016957;28;20045;-67
2022/01/04 02:17:49;;;;;;;18.08;10.55;;;;;;;;;;5020503;28;20045;-66
2022/01/04 02:20:16;;;;;;;19.88;11.18;;;;;;;;;;5012779;28;20046;-66
2022/01/04 02:22:43;;;;;;;13.45;9.48;;;;;;;;;;5025738;28;20132;-67
2022/01/04 02:25:09;;;;;;;16.20;9.23;;;;;;;;;;5012720;28;20045;-66
2022/01/04 02:27:37;;;;;;;17.88;9.88;;;;;;;;;;5023849;28;20049;-68
2022/01/04 02:30:06;;;;;;;15.10;9.43;;;;;;;;;;5008822;28;20597;-68
2022/01/04 02:32:33;;;;;;;15.55;9.93;;;;;;;;;;5016828;28;20426;-68
2022/01/04 02:34:59;;;;;;;19.63;10.10;;;;;;;;;;5030991;28;20053;-69
2022/01/04 02:37:26;;;;;;;12.20;9.32;;;;;;;;;;5018980;28;20452;-68
2022/01/04 02:39:53;;;;;;;15.65;9.77;;;;;;;;;;5030141;28;20396;-68
2022/01/04 02:42:20;;;;;;;15.85;8.90;;;;;;;;;;5022627;28;20506;-68
2022/01/04 02:44:46;;;;;;;14.50;9.25;;;;;;;;;;5019571;28;20417;-68
2022/01/04 02:47:13;;;;;;;13.70;8.57;;;;;;;;;;5010220;28;20093;-68
2022/01/04 02:49:40;;;;;;;16.90;8.77;;;;;;;;;;5014918;28;20060;-68
2022/01/04 02:52:06;;;;;;;13.50;9.10;;;;;;;;;;5025011;28;20049;-68
2022/01/04 02:54:33;;;;;;;13.02;8.70;;;;;;;;;;5019036;28;20064;-68
2022/01/04 02:56:59;;;;;;;14.95;9.10;;;;;;;;;;5014015;28;20280;-68
2022/01/04 02:59:25;;;;;;;13.45;9.48;;;;;;;;;;5019687;28;21267;-68
2022/01/04 03:01:52;;;;;;;14.88;9.45;;;;;;;;;;5020463;28;20045;-68
2022/01/04 03:04:20;;;;;;;16.15;9.05;;;;;;;;;;5025997;28;20483;-68
2022/01/04 03:06:46;;;;;;;16.30;9.35;;;;;;;;;;5027245;28;20056;-68
2022/01/04 03:09:13;;;;;;;12.82;9.13;;;;;;;;;;5028885;28;20061;-68
2022/01/04 03:11:39;;;;;;;13.75;8.38;;;;;;;;;;5009156;28;20418;-68
2022/01/04 03:14:05;;;;;;;13.93;8.85;;;;;;;;;;5022809;28;20065;-68
2022/01/04 03:16:32;;;;;;;13.75;8.80;;;;;;;;;;5017640;28;20496;-68
2022/01/04 03:19:09;;;;;;;16.33;8.75;;;;;;;;;;5023424;28;20213;-68
2022/01/04 03:21:37;;;;;;;13.32;9.10;;;;;;;;;;5015996;28;20076;-68
2022/01/04 03:24:04;;;;;;;14.25;8.60;;;;;;;;;;5024790;28;20056;-69
2022/01/04 03:26:31;;;;;;;14.13;8.70;;;;;;;;;;5012735;28;20045;-68
2022/01/04 03:28:58;;;;;;;10.90;7.93;;;;;;;;;;5019143;28;20057;-68
2022/01/04 03:31:25;;;;;;;14.18;8.98;;;;;;;;;;5022587;28;20045;-68
2022/01/04 03:33:51;;;;;;;15.40;9.82;;;;;;;;;;5017368;28;20104;-68
2022/01/04 03:36:21;;;;;;;15.05;9.25;;;;;;;;;;5022351;28;20052;-70
2022/01/04 03:38:47;;;;;;;;;;;;;;;;;;5017694;28;20394;-68
2022/01/04 03:41:13;;;;;;;13.35;7.78;;;;;;;;;;5022228;28;20473;-68
2022/01/04 03:43:40;;;;;;;15.68;9.77;;;;;;;;;;5018385;28;20505;-68
2022/01/04 03:46:06;;;;;;;14.25;9.02;;;;;;;;;;5036251;28;20051;-68
2022/01/04 03:48:34;;;;;;;15.30;9.80;;;;;;;;;;5025804;28;20057;-68
2022/01/04 03:51:01;;;;;;;15.55;9.70;;;;;;;;;;5010899;28;20049;-68
2022/01/04 03:53:27;;;;;;;14.55;9.75;;;;;;;;;;5023679;28;20061;-68
2022/01/04 03:55:53;;;;;;;14.50;9.85;;;;;;;;;;5016237;28;20057;-68
2022/01/04 03:58:20;;;;;;;15.23;10.05;;;;;;;;;;5007891;28;20049;-68
2022/01/04 04:00:46;;;;;;;16.77;10.30;;;;;;;;;;5020453;28;20056;-68
2022/01/04 04:03:12;;;;;;;15.82;10.38;;;;;;;;;;5022012;28;21192;-68
2022/01/04 04:05:39;;;;;;;17.95;10.52;;;;;;;;;;5019401;28;20049;-68
2022/01/04 04:08:05;;;;;;;16.98;9.27;;;;;;;;;;5019469;28;20045;-69
2022/01/04 04:10:32;;;;;;;17.25;11.02;;;;;;;;;;5022954;28;20072;-68
2022/01/04 04:12:58;;;;;;;16.92;10.70;;;;;;;;;;5014114;28;20111;-68
2022/01/04 04:15:24;;;;;;;16.88;10.80;;;;;;;;;;5030483;28;20053;-68
2022/01/04 04:17:50;;;;;;;16.80;10.23;;;;;;;;;;5013828;28;20061;-68
2022/01/04 04:20:17;;;;;;;16.83;9.50;;;;;;;;;;5026149;28;20414;-68
2022/01/04 04:22:43;;;;;;;17.55;9.88;;;;;;;;;;5008585;28;20046;-69
2022/01/04 04:25:10;;;;;;;18.83;10.60;;;;;;;;;;5018655;28;20558;-69
2022/01/04 04:27:36;;;;;;;17.25;11.13;;;;;;;;;;5010229;28;20438;-68
2022/01/04 04:30:03;;;;;;;15.63;10.68;;;;;;;;;;5024678;28;20049;-68
2022/01/04 04:32:29;;;;;;;18.55;11.25;;;;;;;;;;5021372;28;20065;-68
2022/01/04 04:34:55;;;;;;;16.58;11.05;;;;;;;;;;5022305;28;20049;-69
2022/01/04 04:37:21;;;;;;;17.00;10.98;;;;;;;;;;5026268;28;20041;-68
2022/01/04 04:39:48;;;;;;;20.02;11.60;;;;;;;;;;5029634;28;20048;-68
2022/01/04 04:42:14;;;;;;;15.25;10.43;;;;;;;;;;5018024;28;20068;-68
2022/01/04 04:44:40;;;;;;;19.98;10.30;;;;;;;;;;5022336;28;20053;-68
2022/01/04 04:47:07;;;;;;;15.20;10.75;;;;;;;;;;5014147;28;20053;-68
2022/01/04 04:49:33;;;;;;;15.00;9.80;;;;;;;;;;5027656;28;20675;-68
2022/01/04 04:52:00;;;;;;;16.73;10.52;;;;;;;;;;5017889;28;20085;-68
2022/01/04 04:54:27;;;;;;;17.75;11.50;;;;;;;;;;5027894;28;20655;-69
2022/01/04 04:56:53;;;;;;;18.77;10.55;;;;;;;;;;5029196;28;20061;-68
2022/01/04 04:59:20;;;;;;;16.40;11.10;;;;;;;;;;5012603;28;20049;-68
2022/01/04 05:01:46;;;;;;;19.25;10.77;;;;;;;;;;5024207;28;20052;-68
2022/01/04 05:04:13;;;;;;;17.00;11.10;;;;;;;;;;5020919;28;20065;-68
2022/01/04 05:06:39;;;;;;;16.35;11.45;;;;;;;;;;5030218;28;20059;-69
2022/01/04 05:09:05;;;;;;;19.35;11.25;;;;;;;;;;5016956;28;20497;-68
2022/01/04 05:11:32;;;;;;;18.00;10.68;;;;;;;;;;5031785;28;20541;-68
2022/01/04 05:13:58;;;;;;;14.82;10.02;;;;;;;;;;5018841;28;20057;-69
2022/01/04 05:16:24;;;;;;;16.05;10.10;;;;;;;;;;5022456;28;20045;-68
2022/01/04 05:18:51;;;;;;;16.55;10.93;;;;;;;;;;5024771;28;20045;-69
2022/01/04 05:21:17;;;;;;;21.30;11.35;;;;;;;;;;5027377;28;20516;-68
2022/01/04 05:23:43;;;;;;;15.60;11.00;;;;;;;;;;5034007;28;20044;-68
2022/01/04 05:26:10;;;;;;;20.45;11.73;;;;;;;;;;5018451;28;20601;-69
2022/01/04 05:28:38;;;;;;;22.30;10.98;;;;;;;;;;5020940;28;20049;-68
2022/01/04 05:31:04;;;;;;;20.48;11.23;;;;;;;;;;5028404;28;20057;-68
2022/01/04 05:33:31;;;;;;;22.25;12.15;;;;;;;;;;5007225;28;20053;-68
2022/01/04 05:35:57;;;;;;;19.48;11.20;;;;;;;;;;5028827;28;20053;-68
2022/01/04 05:38:23;;;;;;;15.50;10.07;;;;;;;;;;5016809;28;20060;-69
2022/01/04 05:40:50;;;;;;;16.02;10.43;;;;;;;;;;5007089;28;20068;-69
2022/01/04 05:43:16;;;;;;;17.05;10.93;;;;;;;;;;5012608;28;20579;-68
2022/01/04 05:45:42;;;;;;;17.17;11.43;;;;;;;;;;5029542;28;20044;-69
2022/01/04 05:48:09;;;;;;;21.23;11.57;;;;;;;;;;5026453;28;20049;-68
2022/01/04 05:50:35;;;;;;;19.92;11.30;;;;;;;;;;5020635;28;20474;-68
2022/01/04 05:53:01;;;;;;;17.98;11.07;;;;;;;;;;5032180;28;20049;-68
2022/01/04 05:55:28;;;;;;;18.98;11.85;;;;;;;;;;5011616;28;20051;-69
2022/01/04 05:57:54;;;;;;;19.65;11.25;;;;;;;;;;5022527;28;20064;-69
2022/01/04 06:00:20;;;;;;;18.73;11.20;;;;;;;;;;5018423;28;20079;-69
2022/01/04 06:02:47;;;;;;;18.95;11.85;;;;;;;;;;5027483;28;20541;-69
2022/01/04 06:05:13;;;;;;;16.92;11.60;;;;;;;;;;5024666;28;20113;-68
2022/01/04 06:07:39;;;;;;;19.77;11.27;;;;;;;;;;5029776;28;20045;-68
2022/01/04 06:10:08;;;;;;;18.00;10.88;;;;;;;;;;5022454;28;20052;-68
2022/01/04 06:15:09;;;;;;;18.70;11.25;;;;;;;;;;5026821;28;20049;-68
2022/01/04 06:17:38;;;;;;;18.80;11.15;;;;;;;;;;5020372;28;20059;-69
2022/01/04 06:20:05;;;;;;;21.02;11.77;;;;;;;;;;4999280;28;20718;-69
2022/01/04 06:22:32;;;;;;;17.40;11.18;;;;;;;;;;5016343;28;20076;-68
2022/01/04 06:24:58;;;;;;;17.13;11.27;;;;;;;;;;5019342;28;20045;-68
2022/01/04 06:27:25;;;;;;;18.40;11.77;;;;;;;;;;5026979;28;20678;-68
2022/01/04 06:29:51;;;;;;;21.10;12.38;;;;;;;;;;5014241;28;20060;-69
2022/01/04 06:32:18;;;;;;;22.58;11.48;;;;;;;;;;5024885;28;20395;-68
2022/01/04 06:34:44;;;;;;;18.08;12.02;;;;;;;;;;5014689;28;20426;-69
2022/01/04 06:37:12;;;;;;;21.98;11.68;;;;;;;;;;5019524;28;20053;-68
2022/01/04 06:39:38;;;;;;;19.50;11.27;;;;;;;;;;5013659;28;20057;-68
2022/01/04 06:42:04;;;;;;;20.77;11.57;;;;;;;;;;5017408;28;20518;-68
2022/01/04 06:44:31;;;;;;;19.02;11.27;;;;;;;;;;5028286;28;20525;-68
2022/01/04 06:46:58;;;;;;;19.63;11.80;;;;;;;;;;5021126;28;20053;-69
2022/01/04 06:49:24;;;;;;;19.45;11.35;;;;;;;;;;5025835;28;20045;-69
2022/01/04 06:51:50;;;;;;;24.17;13.27;;;;;;;;;;5016551;28;20524;-69
2022/01/04 06:54:18;;;;;;;21.90;11.48;;;;;;;;;;5017980;28;20052;-68
2022/01/04 06:56:44;;;;;;;24.13;12.25;;;;;;;;;;5023629;28;20053;-68
2022/01/04 06:59:10;;;;;;;20.60;12.23;;;;;;;;;;5018872;28;20053;-68
2022/01/04 07:01:37;;;;;;;22.35;12.68;;;;;;;;;;5030071;28;20045;-68
2022/01/04 07:04:04;;;;;;;20.23;11.57;;;;;;;;;;5003212;28;20052;-68
2022/01/04 07:06:31;;;;;;;24.40;12.20;;;;;;;;;;5024850;28;20268;-68
2022/01/04 07:09:03;;;;;;;23.33;12.02;;;;;;;;;;5015253;28;20447;-68
2022/01/04 07:11:30;;;;;;;20.13;11.77;;;;;;;;;;5020784;28;20124;-68
2022/01/04 07:13:56;;;;;;;20.70;12.77;;;;;;;;;;5020117;28;20056;-69
2022/01/04 07:16:23;;;;;;;19.70;11.40;;;;;;;;;;5020152;28;20045;-68
2022/01/04 07:18:49;;;;;;;17.15;10.48;;;;;;;;;;5022809;28;20143;-68
2022/01/04 07:21:16;;;;;;;20.15;12.23;;;;;;;;;;5011774;28;20060;-68
2022/01/04 07:23:43;;;;;;;24.33;13.02;;;;;;;;;;5025132;28;20052;-68
2022/01/04 07:26:14;;;;;;;21.05;12.75;;;;;;;;;;5019566;28;20056;-68
2022/01/04 07:28:44;;;;;;;21.08;12.30;;;;;;;;;;5024074;28;20056;-68
2022/01/04 07:31:11;;;;;;;21.45;13.07;;;;;;;;;;5016992;28;20053;-68
2022/01/04 07:33:38;;;;;;;22.20;12.75;;;;;;;;;;5024481;28;20127;-68
2022/01/04 07:36:06;;;;;;;22.48;13.35;;;;;;;;;;5021206;28;20452;-68
2022/01/04 07:38:33;;;;;;;22.52;12.15;;;;;;;;;;5015593;28;20042;-69
2022/01/04 07:40:59;;;;;;;21.95;12.13;;;;;;;;;;5026140;28;20045;-68
2022/01/04 07:43:26;;;;;;;21.88;12.70;;;;;;;;;;5015640;28;20046;-68
2022/01/04 07:45:53;;;;;;;25.15;13.60;;;;;;;;;;5027281;28;20065;-68
2022/01/04 07:48:20;;;;;;;24.08;12.38;;;;;;;;;;5006320;28;20045;-68
2022/01/04 07:50:46;;;;;;;30.45;14.82;;;;;;;;;;5025769;28;20057;-68
2022/01/04 07:53:13;;;;;;;26.48;14.20;;;;;;;;;;5025947;28;20049;-68
2022/01/04 07:55:39;;;;;;;25.15;13.38;;;;;;;;;;5017278;28;20053;-67
2022/01/04 07:58:05;;;;;;;24.85;13.57;;;;;;;;;;5023823;28;20681;-67
2022/01/04 08:00:32;;;;;;;23.25;13.20;;;;;;;;;;5015568;28;20041;-67
2022/01/04 08:02:58;;;;;;;25.95;14.18;;;;;;;;;;5016914;28;20064;-67
2022/01/04 08:05:25;;;;;;;27.35;14.43;;;;;;;;;;5022365;28;20100;-67
2022/01/04 08:07:51;;;;;;;26.42;14.13;;;;;;;;;;5036738;28;20053;-68
2022/01/04 08:10:18;;;;;;;21.70;13.50;;;;;;;;;;5027311;28;20281;-67
2022/01/04 08:12:45;;;;;;;23.85;13.82;;;;;;;;;;5014497;28;20078;-67
2022/01/04 08:15:11;;;;;;;27.10;14.25;;;;;;;;;;5019880;28;20855;-67
2022/01/04 08:17:38;;;;;;;24.27;13.75;;;;;;;;;;5009133;28;20072;-67
2022/01/04 08:20:05;;;;;;;25.40;13.73;;;;;;;;;;5028006;28;20137;-67
2022/01/04 08:22:32;;;;;;;30.48;15.05;;;;;;;;;;5013561;28;20057;-68
2022/01/04 08:25:01;;;;;;;26.88;14.95;;;;;;;;;;5026090;28;21020;-68
2022/01/04 08:27:27;;;;;;;27.77;15.15;;;;;;;;;;5020950;28;20453;-67
2022/01/04 08:29:53;;;;;;;30.38;16.42;;;;;;;;;;5001319;28;20058;-67
2022/01/04 08:32:20;;;;;;;32.40;15.73;;;;;;;;;;5032525;28;20084;-67
2022/01/04 08:34:46;;;;;;;32.78;16.63;;;;;;;;;;5015027;28;20083;-68
2022/01/04 08:37:13;;;;;;;31.70;17.60;;;;;;;;;;5024879;28;20077;-68
2022/01/04 08:39:39;;;;;;;34.75;17.40;;;;;;;;;;5011090;28;20072;-68
2022/01/04 08:42:06;;;;;;;28.95;16.67;;;;;;;;;;5023047;28;20053;-68
2022/01/04 08:44:41;;;;;;;34.63;18.00;;;;;;;;;;5015631;28;20049;-67
2022/01/04 08:47:08;;;;;;;33.42;17.98;;;;;;;;;;5025649;28;20062;-67
2022/01/04 08:49:35;;;;;;;32.15;18.13;;;;;;;;;;5022766;28;20045;-67
2022/01/04 08:52:03;;;;;;;38.67;17.17;;;;;;;;;;5017961;28;20045;-67
2022/01/04 08:54:29;;;;;;;32.28;18.38;;;;;;;;;;5016054;28;20495;-68
2022/01/04 08:56:56;;;;;;;35.10;17.98;;;;;;;;;;5016576;28;20057;-67
2022/01/04 08:59:22;;;;;;;32.78;17.23;;;;;;;;;;5024338;28;20337;-67
2022/01/04 09:01:48;;;;;;;30.02;16.65;;;;;;;;;;5021342;28;20041;-67
2022/01/04 09:04:15;;;;;;;31.05;17.02;;;;;;;;;;5026168;28;20511;-67
2022/01/04 09:06:41;;;;;;;30.00;16.52;;;;;;;;;;5024555;28;20053;-67
2022/01/04 09:09:08;;;;;;;32.92;17.23;;;;;;;;;;5013152;28;20061;-67
2022/01/04 09:11:34;;;;;;;29.77;16.23;;;;;;;;;;5029559;28;20057;-67
2022/01/04 09:19:21;;;;;;;31.35;16.95;;;;;;;;;;5018077;28;20052;-67
2022/01/04 09:21:47;;;;;;;31.35;14.95;;;;;;;;;;5024026;28;20065;-67
2022/01/04 09:24:14;;;;;;;28.52;14.55;;;;;;;;;;5014655;28;20049;-67
2022/01/04 09:26:40;;;;;;;32.25;17.15;;;;;;;;;;5027111;28;20045;-67
2022/01/04 09:29:07;;;;;;;30.70;15.70;;;;;;;;;;5023695;28;20183;-67
2022/01/04 09:31:33;;;;;;;33.63;16.17;;;;;;;;;;5019208;28;20049;-66
2022/01/04 09:34:00;;;;;;;34.10;17.65;;;;;;;;;;5025365;28;20045;-66
2022/01/04 09:36:30;;;;;;;33.15;16.50;;;;;;;;;;5014616;28;20049;-67
2022/01/04 09:38:56;;;;;;;33.03;16.50;;;;;;;;;;5024693;28;20045;-67
2022/01/04 09:41:22;;;;;;;28.33;16.83;;;;;;;;;;5018419;28;20049;-67
2022/01/04 09:43:49;;;;;;;34.47;16.55;;;;;;;;;;5031929;28;20506;-67
2022/01/04 09:46:16;;;;;;;33.05;16.85;;;;;;;;;;5028482;28;20350;-67
2022/01/04 09:48:42;;;;;;;32.50;17.27;;;;;;;;;;5013177;28;20072;-67
2022/01/04 09:51:10;;;;;;;38.58;18.73;;;;;;;;;;5017433;28;20053;-67
2022/01/04 09:53:36;;;;;;;26.33;15.30;;;;;;;;;;5018416;28;20064;-67
2022/01/04 09:56:03;;;;;;;15.13;8.48;;;;;;;;;;5025526;28;20227;-67
2022/01/04 09:58:30;;;;;;;13.75;7.43;;;;;;;;;;5017390;28;20354;-67
2022/01/04 10:00:56;;;;;;;13.60;7.20;;;;;;;;;;5023911;28;20045;-68
2022/01/04 10:03:29;;;;;;;9.68;5.75;;;;;;;;;;5022640;28;20712;-67
2022/01/04 10:06:04;;;;;;;10.48;5.63;;;;;;;;;;5010147;28;20053;-68
2022/01/04 10:08:31;;;;;;;12.27;5.78;;;;;;;;;;5037051;28;20464;-68
2022/01/04 10:11:02;;;;;;;10.20;6.47;;;;;;;;;;5017184;28;20062;-68
2022/01/04 10:13:29;;;;;;;11.38;5.95;;;;;;;;;;5026785;28;20053;-67
2022/01/04 10:15:56;;;;;;;10.27;5.13;;;;;;;;;;5004950;28;20057;-67
2022/01/04 10:18:28;;;;;;;8.90;4.90;;;;;;;;;;5019641;28;20058;-67
2022/01/04 10:20:57;;;;;;;8.63;4.70;;;;;;;;;;5019197;28;20574;-67
2022/01/04 10:23:25;;;;;;;8.15;4.30;;;;;;;;;;5027659;28;20049;-67
2022/01/04 10:25:52;;;;;;;7.25;3.92;;;;;;;;;;5022201;28;20053;-67
2022/01/04 10:28:29;;;;;;;7.20;4.13;;;;;;;;;;5002940;28;20108;-67
2022/01/04 10:30:59;;;;;;;7.95;4.55;;;;;;;;;;5002354;28;20049;-67
2022/01/04 10:33:27;;;;;;;8.73;4.35;;;;;;;;;;5014603;28;20053;-67
2022/01/04 10:35:55;;;;;;;8.57;5.37;;;;;;;;;;5023544;28;20052;-67
2022/01/04 10:38:28;;;;;;;12.47;6.13;;;;;;;;;;5021046;28;20033;-67
2022/01/04 10:40:59;;;;;;;11.68;6.60;;;;;;;;;;5023712;28;20041;-67
2022/01/04 10:43:29;;;;;;;12.85;7.30;;;;;;;;;;5028258;28;20045;-67
2022/01/04 10:45:56;;;;;;;14.73;6.95;;;;;;;;;;5013283;28;20490;-68
2022/01/04 10:48:24;;;;;;;17.88;9.75;;;;;;;;;;5025543;28;20050;-67
2022/01/04 10:50:52;;;;;;;15.77;9.15;;;;;;;;;;5015200;28;20041;-67
2022/01/04 10:53:21;;;;;;;19.13;10.45;;;;;;;;;;5027221;28;20052;-67
2022/01/04 10:55:47;;;;;;;19.75;11.55;;;;;;;;;;5017462;28;20486;-68
2022/01/04 10:58:21;;;;;;;19.95;11.88;;;;;;;;;;5025249;28;20056;-67
2022/01/04 11:01:08;;;;;;;19.88;12.23;;;;;;;;;;5010773;28;20053;-67
2022/01/04 11:03:35;;;;;;;20.08;11.80;;;;;;;;;;5027762;28;20037;-67
2022/01/04 11:06:07;;;;;;;23.88;12.95;;;;;;;;;;5034282;28;20060;-67
2022/01/04 11:08:34;;;;;;;20.25;12.45;;;;;;;;;;5018513;28;20674;-67
2022/01/04 11:11:02;;;;;;;27.20;14.82;;;;;;;;;;5015460;28;20049;-68
2022/01/04 11:13:28;;;;;;;29.90;14.55;;;;;;;;;;5012649;28;20038;-67
2022/01/04 11:15:55;;;;;;;27.27;14.38;;;;;;;;;;5018718;28;20055;-67
2022/01/04 11:18:22;;;;;;;26.83;15.27;;;;;;;;;;5019663;28;20052;-68
2022/01/04 11:20:48;;;;;;;25.50;14.35;;;;;;;;;;5032127;28;20049;-67
2022/01/04 11:23:15;;;;;;;25.60;12.95;;;;;;;;;;5004378;28;20049;-68
2022/01/04 11:25:43;;;;;;;23.70;13.57;;;;;;;;;;5036766;28;20049;-68
2022/01/04 11:28:10;;;;;;;21.27;11.65;;;;;;;;;;5019109;28;20723;-68
2022/01/04 11:30:45;;;;;;;25.10;13.60;;;;;;;;;;5017578;28;20085;-67
2022/01/04 11:33:18;;;;;;;23.27;11.88;;;;;;;;;;5025893;28;20044;-68
2022/01/04 11:35:46;;;;;;;21.30;13.02;;;;;;;;;;5019796;28;20072;-68
2022/01/04 11:38:12;;;;;;;19.50;12.32;;;;;;;;;;5025434;28;20065;-69
2022/01/04 11:40:40;;;;;;;19.92;11.90;;;;;;;;;;5017432;28;20053;-68
2022/01/04 11:43:23;;;;;;;22.15;12.45;;;;;;;;;;5017189;28;20057;-68
2022/01/04 11:45:51;;;;;;;21.33;11.93;;;;;;;;;;5025176;28;20053;-68
2022/01/04 11:48:37;;;;;;;21.35;12.48;;;;;;;;;;5018219;28;20071;-68
2022/01/04 11:51:07;;;;;;;18.05;10.80;;;;;;;;;;5023445;28;20056;-69
2022/01/04 11:53:34;;;;;;;19.02;11.13;;;;;;;;;;5014028;28;20505;-68
2022/01/04 11:56:04;;;;;;;17.67;10.38;;;;;;;;;;5017309;28;20107;-68
2022/01/04 11:58:50;;;;;;;23.00;10.90;;;;;;;;;;5011297;28;20054;-69
2022/01/04 12:01:23;;;;;;;19.77;9.93;;;;;;;;;;5024871;28;20580;-68
2022/01/04 12:03:50;;;;;;;20.15;10.57;;;;;;;;;;5012730;28;20068;-68
2022/01/04 12:06:18;;;;;;;16.23;9.30;;;;;;;;;;5030535;28;20532;-68
2022/01/04 12:08:44;;;;;;;19.10;8.90;;;;;;;;;;5011485;28;20064;-68
2022/01/04 12:11:21;;;;;;;13.77;7.80;;;;;;;;;;5018404;28;20283;-68
2022/01/04 12:13:52;;;;;;;16.40;7.57;;;;;;;;;;5022165;28;20061;-68
2022/01/04 12:16:38;;;;;;;11.07;6.00;;;;;;;;;;5021883;28;20455;-68
2022/01/04 12:19:06;;;;;;;10.80;6.00;;;;;;;;;;5025393;28;20876;-68
2022/01/04 12:21:34;;;;;;;14.13;6.82;;;;;;;;;;5020328;28;20049;-68
2022/01/04 12:24:01;;;;;;;12.82;6.90;;;;;;;;;;5014885;28;20844;-68
2022/01/04 12:26:33;;;;;;;16.30;7.10;;;;;;;;;;5017234;28;20053;-68
2022/01/04 12:29:03;;;;;;;14.60;6.90;;;;;;;;;;5019982;28;20057;-68
2022/01/04 12:31:30;;;;;;;16.27;6.97;;;;;;;;;;5019885;28;20049;-68
2022/01/04 12:34:23;;;;;;;13.02;6.63;;;;;;;;;;5021443;28;20469;-67
2022/01/04 12:36:49;;;;;;;11.85;5.22;;;;;;;;;;5024306;28;20149;-66
2022/01/04 12:39:17;;;;;;;11.63;5.05;;;;;;;;;;5011896;28;20053;-66
2022/01/04 12:41:44;;;;;;;11.50;5.38;;;;;;;;;;5028977;28;20435;-66
2022/01/04 12:44:12;;;;;;;10.07;4.63;;;;;;;;;;5016167;28;20057;-66
2022/01/04 12:46:40;;;;;;;6.03;3.15;;;;;;;;;;5031090;28;20057;-68
2022/01/04 12:49:06;;;;;;;7.47;3.35;;;;;;;;;;5018032;28;20103;-66
2022/01/04 12:51:40;;;;;;;9.23;3.40;;;;;;;;;;5023467;28;20046;-66
2022/01/04 12:54:07;;;;;;;10.02;3.42;;;;;;;;;;5014575;28;20059;-68
2022/01/04 12:56:41;;;;;;;11.43;3.33;;;;;;;;;;5027765;28;20045;-69
2022/01/04 12:59:08;;;;;;;13.38;3.67;;;;;;;;;;5025490;28;20060;-68
2022/01/04 13:01:34;;;;;;;8.63;3.38;;;;;;;;;;5028546;28;20223;-68
2022/01/04 13:04:02;;;;;;;7.20;3.33;;;;;;;;;;5025204;28;20045;-69
2022/01/04 13:06:31;;;;;;;6.95;3.00;;;;;;;;;;5019004;28;20047;-69
2022/01/04 13:08:57;;;;;;;;;;;;;;;;;;5037907;28;20049;-66
2022/01/04 13:11:23;;;;;;;5.93;1.85;;;;;;;;;;5020966;28;20027;-69
2022/01/04 13:13:57;;;;;;;11.25;2.50;;;;;;;;;;5026310;28;20048;-68
2022/01/04 13:16:25;;;;;;;5.00;1.70;;;;;;;;;;5029390;28;20056;-68
2022/01/04 13:18:52;;;;;;;5.57;1.55;;;;;;;;;;5013394;28;20269;-69
2022/01/04 13:21:24;;;;;;;2.92;1.25;;;;;;;;;;5025061;28;20045;-68
2022/01/04 13:23:51;;;;;;;4.18;1.27;;;;;;;;;;5015348;28;20415;-69
2022/01/04 13:26:24;;;;;;;6.90;1.30;;;;;;;;;;5029273;28;20540;-68
2022/01/04 13:28:54;;;;;;;5.18;1.10;;;;;;;;;;5010533;28;20045;-67
2022/01/04 13:31:20;;;;;;;7.35;1.50;;;;;;;;;;5027974;28;20416;-67
2022/01/04 13:33:47;;;;;;;7.55;2.45;;;;;;;;;;5010636;28;20056;-67
2022/01/04 13:36:13;;;;;;;6.97;1.70;;;;;;;;;;5009097;28;20053;-67
2022/01/04 13:38:40;;;;;;;5.05;1.40;;;;;;;;;;5024042;28;20049;-67
2022/01/04 13:41:07;;;;;;;6.18;1.77;;;;;;;;;;5018370;28;20048;-68
2022/01/04 13:43:36;;;;;;;5.25;1.35;;;;;;;;;;5027032;28;20053;-67
2022/01/04 13:46:10;;;;;;;3.85;1.20;;;;;;;;;;5016886;28;20052;-67
2022/01/04 13:48:38;;;;;;;4.40;1.30;;;;;;;;;;5033825;28;20057;-67
2022/01/04 13:51:07;;;;;;;6.55;1.20;;;;;;;;;;5018171;28;20674;-67
2022/01/04 13:53:37;;;;;;;5.70;1.35;;;;;;;;;;5039234;28;20667;-67
2022/01/04 13:56:08;;;;;;;5.88;1.10;;;;;;;;;;5028195;28;20561;-67
2022/01/04 13:58:54;;;;;;;3.80;1.13;;;;;;;;;;5019237;28;20179;-68
2022/01/04 14:01:22;;;;;;;2.30;0.75;;;;;;;;;;5022490;28;20141;-67
2022/01/04 14:04:12;;;;;;;4.60;1.40;;;;;;;;;;5016416;28;20452;-67
2022/01/04 14:06:48;;;;;;;1.65;0.80;;;;;;;;;;5015455;28;20063;-67
2022/01/04 14:09:25;;;;;;;2.42;1.00;;;;;;;;;;4996774;28;20410;-67
2022/01/04 14:12:01;;;;;;;4.03;0.90;;;;;;;;;;5029602;28;20052;-68
2022/01/04 14:14:48;;;;;;;2.25;0.82;;;;;;;;;;5011435;28;20511;-67
2022/01/04 14:17:19;;;;;;;4.78;1.10;;;;;;;;;;5023174;28;20052;-67
2022/01/04 14:19:51;;;;;;;3.67;1.27;;;;;;;;;;5016635;28;20084;-67
2022/01/04 14:22:19;;;;;;;1.88;0.70;;;;;;;;;;5026514;28;20056;-68
2022/01/04 14:24:49;;;;;;;2.65;0.73;;;;;;;;;;5015929;28;20058;-67
2022/01/04 14:27:15;;;;;;;2.08;0.43;;;;;;;;;;5027268;28;20511;-68
2022/01/04 14:29:42;;;;;;;1.77;0.63;;;;;;;;;;5019131;28;20317;-67
2022/01/04 14:32:11;;;;;;;1.88;0.60;;;;;;;;;;5016192;28;20044;-67
2022/01/04 14:34:38;;;;;;;1.52;0.60;;;;;;;;;;5023908;28;20479;-67
2022/01/04 14:37:05;;;;;;;4.30;0.75;;;;;;;;;;5021017;28;20061;-67
2022/01/04 14:39:32;;;;;;;4.72;0.80;;;;;;;;;;5029145;28;20057;-67